Kuala Terengganu, Malaysia
Current Conditions -  °F | °C
As of 9:00 AM on Thursday 27 Nov 2014 (Local Time) from WMKN Reporting Station
Broken Clouds Broken Clouds  
Wind Chill: 82°   Ceiling: 26000
Heat Index: 91°   Visibility: 6mi
Dew Point: 77°   Wind: 6mph
Humidity: 84%   Direction: 310°NW
Pressure: 29.83"   Gusts: NA
Location:  5.33°N, 103.14°E
Report Text: WMKN 270100Z 31005KT 260V340 9999 FEW016 BKN260 28/25 Q1010
Loading
Personal Weather Stations






























Interactive Weather Map New forecast layout! Learn more

10-Day Weather Forecast

Advertisements
Track Severe Weather on mobile